sensor_id;sensor_type;location;lat;lon;timestamp;P1;durP1;ratioP1;P2;durP2;ratioP2
23155;SDS011;11746;50.876;4.246;2022-11-15T00:00:47;20.60;;;15.68;;
23155;SDS011;11746;50.876;4.246;2022-11-15T00:03:17;21.10;;;15.35;;
23155;SDS011;11746;50.876;4.246;2022-11-15T00:05:47;22.35;;;15.77;;
23155;SDS011;11746;50.876;4.246;2022-11-15T00:08:13;22.63;;;15.73;;
23155;SDS011;11746;50.876;4.246;2022-11-15T00:10:39;22.70;;;15.68;;
23155;SDS011;11746;50.876;4.246;2022-11-15T00:13:14;23.05;;;16.52;;
23155;SDS011;11746;50.876;4.246;2022-11-15T00:15:40;20.75;;;16.00;;
23155;SDS011;11746;50.876;4.246;2022-11-15T00:18:09;22.05;;;15.75;;
23155;SDS011;11746;50.876;4.246;2022-11-15T00:20:37;25.52;;;16.05;;
23155;SDS011;11746;50.876;4.246;2022-11-15T00:23:03;21.50;;;16.50;;
23155;SDS011;11746;50.876;4.246;2022-11-15T00:25:30;23.25;;;16.63;;
23155;SDS011;11746;50.876;4.246;2022-11-15T00:27:57;23.75;;;17.58;;
23155;SDS011;11746;50.876;4.246;2022-11-15T00:30:28;22.13;;;16.40;;
23155;SDS011;11746;50.876;4.246;2022-11-15T00:32:54;26.63;;;16.67;;
23155;SDS011;11746;50.876;4.246;2022-11-15T00:35:20;24.17;;;16.10;;
23155;SDS011;11746;50.876;4.246;2022-11-15T00:37:46;23.98;;;16.02;;
23155;SDS011;11746;50.876;4.246;2022-11-15T00:40:12;23.77;;;17.27;;
23155;SDS011;11746;50.876;4.246;2022-11-15T00:42:39;20.02;;;15.73;;
23155;SDS011;11746;50.876;4.246;2022-11-15T00:45:05;24.58;;;16.73;;
23155;SDS011;11746;50.876;4.246;2022-11-15T00:47:31;23.17;;;16.15;;
23155;SDS011;11746;50.876;4.246;2022-11-15T00:49:57;22.27;;;16.67;;
23155;SDS011;11746;50.876;4.246;2022-11-15T00:52:23;22.88;;;15.93;;
23155;SDS011;11746;50.876;4.246;2022-11-15T00:54:49;22.23;;;15.52;;
23155;SDS011;11746;50.876;4.246;2022-11-15T00:57:14;22.60;;;15.75;;
23155;SDS011;11746;50.876;4.246;2022-11-15T00:59:40;22.63;;;15.82;;
23155;SDS011;11746;50.876;4.246;2022-11-15T01:02:06;22.75;;;15.68;;
23155;SDS011;11746;50.876;4.246;2022-11-15T01:04:33;21.75;;;15.82;;
23155;SDS011;11746;50.876;4.246;2022-11-15T01:07:01;20.85;;;15.57;;
23155;SDS011;11746;50.876;4.246;2022-11-15T01:09:29;19.88;;;15.23;;
23155;SDS011;11746;50.876;4.246;2022-11-15T01:11:55;24.95;;;15.95;;
23155;SDS011;11746;50.876;4.246;2022-11-15T01:14:24;22.60;;;16.00;;
23155;SDS011;11746;50.876;4.246;2022-11-15T01:16:49;21.90;;;15.82;;
23155;SDS011;11746;50.876;4.246;2022-11-15T01:19:17;21.20;;;15.40;;
23155;SDS011;11746;50.876;4.246;2022-11-15T01:21:43;24.83;;;15.95;;
23155;SDS011;11746;50.876;4.246;2022-11-15T01:24:12;23.63;;;16.05;;
23155;SDS011;11746;50.876;4.246;2022-11-15T01:26:38;22.40;;;16.35;;
23155;SDS011;11746;50.876;4.246;2022-11-15T01:29:04;20.77;;;15.85;;
23155;SDS011;11746;50.876;4.246;2022-11-15T01:31:29;22.35;;;16.35;;
23155;SDS011;11746;50.876;4.246;2022-11-15T01:33:55;22.55;;;15.55;;
23155;SDS011;11746;50.876;4.246;2022-11-15T01:36:21;22.40;;;15.25;;
23155;SDS011;11746;50.876;4.246;2022-11-15T01:38:52;20.67;;;15.23;;
23155;SDS011;11746;50.876;4.246;2022-11-15T01:41:20;20.45;;;14.32;;
23155;SDS011;11746;50.876;4.246;2022-11-15T01:44:25;19.45;;;13.90;;
23155;SDS011;11746;50.876;4.246;2022-11-15T01:46:59;20.55;;;15.00;;
23155;SDS011;11746;50.876;4.246;2022-11-15T01:49:27;21.70;;;14.63;;
23155;SDS011;11746;50.876;4.246;2022-11-15T01:51:57;20.90;;;15.23;;
23155;SDS011;11746;50.876;4.246;2022-11-15T01:54:25;22.55;;;14.73;;
23155;SDS011;11746;50.876;4.246;2022-11-15T01:57:04;18.63;;;14.52;;
23155;SDS011;11746;50.876;4.246;2022-11-15T01:59:33;21.45;;;14.75;;
23155;SDS011;11746;50.876;4.246;2022-11-15T02:01:59;23.15;;;15.60;;
23155;SDS011;11746;50.876;4.246;2022-11-15T02:04:28;20.50;;;14.55;;
23155;SDS011;11746;50.876;4.246;2022-11-15T02:06:57;21.98;;;14.85;;
23155;SDS011;11746;50.876;4.246;2022-11-15T02:09:27;22.55;;;15.45;;
23155;SDS011;11746;50.876;4.246;2022-11-15T02:11:52;22.85;;;15.20;;
23155;SDS011;11746;50.876;4.246;2022-11-15T02:14:20;20.83;;;14.93;;
23155;SDS011;11746;50.876;4.246;2022-11-15T02:25:35;19.10;;;14.02;;
23155;SDS011;11746;50.876;4.246;2022-11-15T02:34:20;21.83;;;12.98;;
23155;SDS011;11746;50.876;4.246;2022-11-15T02:42:53;19.52;;;12.55;;
23155;SDS011;11746;50.876;4.246;2022-11-15T02:45:41;17.05;;;11.82;;
23155;SDS011;11746;50.876;4.246;2022-11-15T02:48:13;15.65;;;11.48;;
23155;SDS011;11746;50.876;4.246;2022-11-15T02:50:43;15.32;;;11.55;;
23155;SDS011;11746;50.876;4.246;2022-11-15T02:53:10;14.30;;;10.57;;
23155;SDS011;11746;50.876;4.246;2022-11-15T02:55:37;17.00;;;10.65;;
23155;SDS011;11746;50.876;4.246;2022-11-15T03:09:02;14.43;;;9.00;;
23155;SDS011;11746;50.876;4.246;2022-11-15T03:11:41;15.25;;;9.40;;
23155;SDS011;11746;50.876;4.246;2022-11-15T03:14:29;13.05;;;8.73;;
23155;SDS011;11746;50.876;4.246;2022-11-15T03:22:11;16.70;;;8.40;;
23155;SDS011;11746;50.876;4.246;2022-11-15T03:24:45;12.98;;;8.07;;
23155;SDS011;11746;50.876;4.246;2022-11-15T03:27:17;11.90;;;7.88;;
23155;SDS011;11746;50.876;4.246;2022-11-15T03:29:49;11.65;;;7.90;;
23155;SDS011;11746;50.876;4.246;2022-11-15T03:32:25;12.27;;;7.78;;
23155;SDS011;11746;50.876;4.246;2022-11-15T03:37:38;12.23;;;7.15;;
23155;SDS011;11746;50.876;4.246;2022-11-15T03:40:27;17.25;;;7.68;;
23155;SDS011;11746;50.876;4.246;2022-11-15T03:43:22;9.95;;;6.90;;
23155;SDS011;11746;50.876;4.246;2022-11-15T03:46:13;11.85;;;7.03;;
23155;SDS011;11746;50.876;4.246;2022-11-15T03:48:44;11.13;;;6.38;;
23155;SDS011;11746;50.876;4.246;2022-11-15T03:51:17;13.10;;;7.20;;
23155;SDS011;11746;50.876;4.246;2022-11-15T03:53:43;10.00;;;6.40;;
23155;SDS011;11746;50.876;4.246;2022-11-15T03:56:09;8.52;;;6.00;;
23155;SDS011;11746;50.876;4.246;2022-11-15T03:58:35;9.65;;;6.25;;
23155;SDS011;11746;50.876;4.246;2022-11-15T04:01:01;10.73;;;6.38;;
23155;SDS011;11746;50.876;4.246;2022-11-15T04:03:29;10.77;;;7.20;;
23155;SDS011;11746;50.876;4.246;2022-11-15T04:05:54;12.25;;;6.00;;
23155;SDS011;11746;50.876;4.246;2022-11-15T04:08:22;8.85;;;6.38;;
23155;SDS011;11746;50.876;4.246;2022-11-15T04:10:48;9.18;;;6.03;;
23155;SDS011;11746;50.876;4.246;2022-11-15T04:13:14;11.30;;;6.50;;
23155;SDS011;11746;50.876;4.246;2022-11-15T04:15:40;12.15;;;6.60;;
23155;SDS011;11746;50.876;4.246;2022-11-15T04:18:06;10.43;;;6.57;;
23155;SDS011;11746;50.876;4.246;2022-11-15T04:20:32;9.40;;;5.95;;
23155;SDS011;11746;50.876;4.246;2022-11-15T04:23:20;8.55;;;6.03;;
23155;SDS011;11746;50.876;4.246;2022-11-15T04:26:10;11.68;;;5.93;;
23155;SDS011;11746;50.876;4.246;2022-11-15T04:28:37;10.77;;;6.00;;
23155;SDS011;11746;50.876;4.246;2022-11-15T04:31:22;9.70;;;6.03;;
23155;SDS011;11746;50.876;4.246;2022-11-15T04:33:48;9.45;;;5.65;;
23155;SDS011;11746;50.876;4.246;2022-11-15T04:36:15;8.52;;;5.57;;
23155;SDS011;11746;50.876;4.246;2022-11-15T04:38:59;9.93;;;5.87;;
23155;SDS011;11746;50.876;4.246;2022-11-15T04:41:27;12.18;;;5.32;;
23155;SDS011;11746;50.876;4.246;2022-11-15T04:43:57;8.23;;;5.13;;
23155;SDS011;11746;50.876;4.246;2022-11-15T04:46:23;10.45;;;5.55;;
23155;SDS011;11746;50.876;4.246;2022-11-15T04:48:49;10.82;;;4.78;;
23155;SDS011;11746;50.876;4.246;2022-11-15T04:51:18;10.60;;;5.40;;
23155;SDS011;11746;50.876;4.246;2022-11-15T04:53:44;11.82;;;5.53;;
23155;SDS011;11746;50.876;4.246;2022-11-15T04:56:10;7.70;;;4.53;;
23155;SDS011;11746;50.876;4.246;2022-11-15T04:58:37;7.55;;;4.75;;
23155;SDS011;11746;50.876;4.246;2022-11-15T05:01:09;8.68;;;4.43;;
23155;SDS011;11746;50.876;4.246;2022-11-15T05:03:58;9.20;;;4.80;;
23155;SDS011;11746;50.876;4.246;2022-11-15T05:06:42;11.80;;;4.60;;
23155;SDS011;11746;50.876;4.246;2022-11-15T05:09:10;6.90;;;3.92;;
23155;SDS011;11746;50.876;4.246;2022-11-15T05:11:38;7.20;;;3.55;;
23155;SDS011;11746;50.876;4.246;2022-11-15T05:14:07;7.40;;;3.80;;
23155;SDS011;11746;50.876;4.246;2022-11-15T05:16:35;7.50;;;3.65;;
23155;SDS011;11746;50.876;4.246;2022-11-15T05:19:03;8.52;;;3.28;;
23155;SDS011;11746;50.876;4.246;2022-11-15T05:21:29;8.07;;;3.53;;
23155;SDS011;11746;50.876;4.246;2022-11-15T05:23:59;6.00;;;3.60;;
23155;SDS011;11746;50.876;4.246;2022-11-15T05:26:24;4.63;;;3.17;;
23155;SDS011;11746;50.876;4.246;2022-11-15T05:28:51;5.65;;;3.10;;
23155;SDS011;11746;50.876;4.246;2022-11-15T05:31:22;6.75;;;3.15;;
23155;SDS011;11746;50.876;4.246;2022-11-15T05:33:48;5.80;;;2.75;;
23155;SDS011;11746;50.876;4.246;2022-11-15T05:41:31;10.18;;;3.28;;
23155;SDS011;11746;50.876;4.246;2022-11-15T05:43:59;6.93;;;3.63;;
23155;SDS011;11746;50.876;4.246;2022-11-15T05:46:27;7.65;;;3.30;;
23155;SDS011;11746;50.876;4.246;2022-11-15T05:48:53;8.55;;;3.65;;
23155;SDS011;11746;50.876;4.246;2022-11-15T05:51:21;12.95;;;3.30;;
23155;SDS011;11746;50.876;4.246;2022-11-15T05:53:48;10.10;;;4.00;;
23155;SDS011;11746;50.876;4.246;2022-11-15T05:56:14;13.93;;;4.32;;
23155;SDS011;11746;50.876;4.246;2022-11-15T05:58:41;8.48;;;4.55;;
23155;SDS011;11746;50.876;4.246;2022-11-15T06:01:08;9.73;;;4.20;;
23155;SDS011;11746;50.876;4.246;2022-11-15T06:03:34;14.35;;;4.60;;
23155;SDS011;11746;50.876;4.246;2022-11-15T06:06:00;8.75;;;4.38;;
23155;SDS011;11746;50.876;4.246;2022-11-15T06:08:27;9.27;;;4.70;;
23155;SDS011;11746;50.876;4.246;2022-11-15T06:10:53;9.02;;;4.68;;
23155;SDS011;11746;50.876;4.246;2022-11-15T06:13:21;8.10;;;4.32;;
23155;SDS011;11746;50.876;4.246;2022-11-15T06:15:47;8.90;;;4.30;;
23155;SDS011;11746;50.876;4.246;2022-11-15T06:18:17;6.57;;;3.65;;
23155;SDS011;11746;50.876;4.246;2022-11-15T06:20:43;10.75;;;4.82;;
23155;SDS011;11746;50.876;4.246;2022-11-15T06:23:09;6.13;;;3.60;;
23155;SDS011;11746;50.876;4.246;2022-11-15T06:25:40;9.77;;;3.88;;
23155;SDS011;11746;50.876;4.246;2022-11-15T06:28:05;5.38;;;3.72;;
23155;SDS011;11746;50.876;4.246;2022-11-15T06:30:31;7.32;;;3.33;;
23155;SDS011;11746;50.876;4.246;2022-11-15T06:33:03;8.48;;;4.15;;
23155;SDS011;11746;50.876;4.246;2022-11-15T06:35:30;6.85;;;3.20;;
23155;SDS011;11746;50.876;4.246;2022-11-15T06:38:02;6.43;;;3.85;;
23155;SDS011;11746;50.876;4.246;2022-11-15T06:40:28;10.20;;;3.42;;
23155;SDS011;11746;50.876;4.246;2022-11-15T06:42:58;5.78;;;3.30;;
23155;SDS011;11746;50.876;4.246;2022-11-15T06:45:24;7.47;;;3.20;;
23155;SDS011;11746;50.876;4.246;2022-11-15T06:47:50;7.03;;;3.33;;
23155;SDS011;11746;50.876;4.246;2022-11-15T06:50:16;8.07;;;3.50;;
23155;SDS011;11746;50.876;4.246;2022-11-15T06:52:44;8.65;;;3.72;;
23155;SDS011;11746;50.876;4.246;2022-11-15T06:55:13;5.82;;;3.10;;
23155;SDS011;11746;50.876;4.246;2022-11-15T06:57:51;8.25;;;3.88;;
23155;SDS011;11746;50.876;4.246;2022-11-15T07:00:17;7.18;;;3.92;;
23155;SDS011;11746;50.876;4.246;2022-11-15T07:02:45;10.98;;;4.53;;
23155;SDS011;11746;50.876;4.246;2022-11-15T07:05:12;8.68;;;4.15;;
23155;SDS011;11746;50.876;4.246;2022-11-15T07:07:39;8.88;;;4.07;;
23155;SDS011;11746;50.876;4.246;2022-11-15T07:10:05;9.40;;;4.00;;
23155;SDS011;11746;50.876;4.246;2022-11-15T07:12:32;7.70;;;4.07;;
23155;SDS011;11746;50.876;4.246;2022-11-15T07:15:00;6.65;;;4.28;;
23155;SDS011;11746;50.876;4.246;2022-11-15T07:17:26;7.35;;;4.22;;
23155;SDS011;11746;50.876;4.246;2022-11-15T07:19:54;5.85;;;4.50;;
23155;SDS011;11746;50.876;4.246;2022-11-15T07:22:20;8.73;;;4.53;;
23155;SDS011;11746;50.876;4.246;2022-11-15T07:24:46;10.65;;;5.00;;
23155;SDS011;11746;50.876;4.246;2022-11-15T07:27:11;7.90;;;4.28;;
23155;SDS011;11746;50.876;4.246;2022-11-15T07:29:39;8.60;;;4.60;;
23155;SDS011;11746;50.876;4.246;2022-11-15T07:32:05;7.97;;;4.10;;
23155;SDS011;11746;50.876;4.246;2022-11-15T07:34:31;11.70;;;4.85;;
23155;SDS011;11746;50.876;4.246;2022-11-15T07:36:59;6.43;;;4.00;;
23155;SDS011;11746;50.876;4.246;2022-11-15T07:39:25;8.48;;;3.88;;
23155;SDS011;11746;50.876;4.246;2022-11-15T07:41:50;8.02;;;4.03;;
23155;SDS011;11746;50.876;4.246;2022-11-15T07:44:36;6.50;;;3.70;;
23155;SDS011;11746;50.876;4.246;2022-11-15T07:47:01;6.65;;;3.38;;
23155;SDS011;11746;50.876;4.246;2022-11-15T07:49:29;6.25;;;3.28;;
23155;SDS011;11746;50.876;4.246;2022-11-15T07:51:55;6.22;;;3.35;;
23155;SDS011;11746;50.876;4.246;2022-11-15T07:54:21;8.45;;;3.25;;
23155;SDS011;11746;50.876;4.246;2022-11-15T07:56:46;10.10;;;3.10;;
23155;SDS011;11746;50.876;4.246;2022-11-15T07:59:15;7.30;;;2.97;;
23155;SDS011;11746;50.876;4.246;2022-11-15T08:01:41;6.25;;;3.00;;
23155;SDS011;11746;50.876;4.246;2022-11-15T08:04:07;7.07;;;2.90;;
23155;SDS011;11746;50.876;4.246;2022-11-15T08:06:32;7.30;;;2.75;;
23155;SDS011;11746;50.876;4.246;2022-11-15T08:08:58;7.68;;;2.80;;
23155;SDS011;11746;50.876;4.246;2022-11-15T08:11:26;6.38;;;2.33;;
23155;SDS011;11746;50.876;4.246;2022-11-15T08:13:54;7.18;;;3.00;;
23155;SDS011;11746;50.876;4.246;2022-11-15T08:16:20;6.03;;;2.55;;
23155;SDS011;11746;50.876;4.246;2022-11-15T08:18:45;5.05;;;2.08;;
23155;SDS011;11746;50.876;4.246;2022-11-15T08:21:12;6.88;;;2.20;;
23155;SDS011;11746;50.876;4.246;2022-11-15T08:23:41;7.38;;;2.40;;
23155;SDS011;11746;50.876;4.246;2022-11-15T08:26:09;7.05;;;2.03;;
23155;SDS011;11746;50.876;4.246;2022-11-15T08:28:35;4.15;;;2.00;;
23155;SDS011;11746;50.876;4.246;2022-11-15T08:31:00;5.55;;;2.05;;
23155;SDS011;11746;50.876;4.246;2022-11-15T08:33:29;7.88;;;2.05;;
23155;SDS011;11746;50.876;4.246;2022-11-15T08:35:59;5.88;;;2.10;;
23155;SDS011;11746;50.876;4.246;2022-11-15T08:38:25;6.68;;;2.03;;
23155;SDS011;11746;50.876;4.246;2022-11-15T08:40:53;2.60;;;1.55;;
23155;SDS011;11746;50.876;4.246;2022-11-15T08:43:26;6.13;;;1.70;;
23155;SDS011;11746;50.876;4.246;2022-11-15T08:45:55;6.22;;;1.80;;
23155;SDS011;11746;50.876;4.246;2022-11-15T08:48:21;4.43;;;1.90;;
23155;SDS011;11746;50.876;4.246;2022-11-15T08:50:47;5.18;;;1.95;;
23155;SDS011;11746;50.876;4.246;2022-11-15T08:53:17;6.13;;;2.22;;
23155;SDS011;11746;50.876;4.246;2022-11-15T08:55:44;5.28;;;1.90;;
23155;SDS011;11746;50.876;4.246;2022-11-15T08:58:10;4.80;;;1.80;;
23155;SDS011;11746;50.876;4.246;2022-11-15T09:00:36;5.65;;;2.03;;
23155;SDS011;11746;50.876;4.246;2022-11-15T09:03:05;8.13;;;1.90;;
23155;SDS011;11746;50.876;4.246;2022-11-15T09:05:37;7.07;;;1.83;;
23155;SDS011;11746;50.876;4.246;2022-11-15T09:08:03;6.85;;;1.67;;
23155;SDS011;11746;50.876;4.246;2022-11-15T09:10:30;7.53;;;2.08;;
23155;SDS011;11746;50.876;4.246;2022-11-15T09:12:58;5.85;;;2.13;;
23155;SDS011;11746;50.876;4.246;2022-11-15T09:15:24;4.78;;;1.80;;
23155;SDS011;11746;50.876;4.246;2022-11-15T09:17:49;5.93;;;1.88;;
23155;SDS011;11746;50.876;4.246;2022-11-15T09:20:15;4.55;;;1.52;;
23155;SDS011;11746;50.876;4.246;2022-11-15T09:22:41;6.82;;;1.80;;
23155;SDS011;11746;50.876;4.246;2022-11-15T09:25:07;7.75;;;1.42;;
23155;SDS011;11746;50.876;4.246;2022-11-15T09:27:33;5.57;;;1.50;;
23155;SDS011;11746;50.876;4.246;2022-11-15T09:30:02;5.22;;;1.60;;
23155;SDS011;11746;50.876;4.246;2022-11-15T09:32:28;3.72;;;1.45;;
23155;SDS011;11746;50.876;4.246;2022-11-15T09:34:55;7.95;;;1.60;;
23155;SDS011;11746;50.876;4.246;2022-11-15T09:37:20;7.38;;;1.63;;
23155;SDS011;11746;50.876;4.246;2022-11-15T09:39:46;5.38;;;1.20;;
23155;SDS011;11746;50.876;4.246;2022-11-15T09:42:24;4.85;;;1.38;;
23155;SDS011;11746;50.876;4.246;2022-11-15T09:45:26;5.47;;;1.20;;
23155;SDS011;11746;50.876;4.246;2022-11-15T09:51:11;4.68;;;1.83;;
23155;SDS011;11746;50.876;4.246;2022-11-15T09:53:47;6.68;;;1.45;;
23155;SDS011;11746;50.876;4.246;2022-11-15T09:56:22;7.00;;;1.45;;
23155;SDS011;11746;50.876;4.246;2022-11-15T10:01:47;5.47;;;1.35;;
23155;SDS011;11746;50.876;4.246;2022-11-15T10:04:32;8.77;;;1.40;;
23155;SDS011;11746;50.876;4.246;2022-11-15T10:07:13;6.50;;;1.70;;
23155;SDS011;11746;50.876;4.246;2022-11-15T10:09:45;5.15;;;1.63;;
23155;SDS011;11746;50.876;4.246;2022-11-15T10:12:23;6.22;;;1.10;;
23155;SDS011;11746;50.876;4.246;2022-11-15T10:14:51;5.18;;;1.30;;
23155;SDS011;11746;50.876;4.246;2022-11-15T10:19:56;5.32;;;1.35;;
23155;SDS011;11746;50.876;4.246;2022-11-15T10:22:38;5.18;;;1.30;;
23155;SDS011;11746;50.876;4.246;2022-11-15T10:25:25;7.85;;;1.33;;
23155;SDS011;11746;50.876;4.246;2022-11-15T10:27:57;9.45;;;1.70;;
23155;SDS011;11746;50.876;4.246;2022-11-15T10:30:28;5.82;;;1.20;;
23155;SDS011;11746;50.876;4.246;2022-11-15T10:33:00;4.90;;;1.00;;
23155;SDS011;11746;50.876;4.246;2022-11-15T10:46:33;10.48;;;1.40;;
23155;SDS011;11746;50.876;4.246;2022-11-15T10:49:12;10.80;;;2.70;;
23155;SDS011;11746;50.876;4.246;2022-11-15T10:51:42;9.10;;;1.10;;
23155;SDS011;11746;50.876;4.246;2022-11-15T10:56:53;7.45;;;1.60;;
23155;SDS011;11746;50.876;4.246;2022-11-15T10:59:24;5.47;;;1.10;;
23155;SDS011;11746;50.876;4.246;2022-11-15T11:01:53;9.70;;;1.20;;
23155;SDS011;11746;50.876;4.246;2022-11-15T11:04:19;9.27;;;1.58;;
23155;SDS011;11746;50.876;4.246;2022-11-15T11:06:49;8.52;;;1.00;;
23155;SDS011;11746;50.876;4.246;2022-11-15T11:09:27;5.35;;;1.17;;
23155;SDS011;11746;50.876;4.246;2022-11-15T11:11:57;6.43;;;0.82;;
23155;SDS011;11746;50.876;4.246;2022-11-15T11:14:26;7.18;;;1.35;;
23155;SDS011;11746;50.876;4.246;2022-11-15T11:19:48;6.53;;;1.02;;
23155;SDS011;11746;50.876;4.246;2022-11-15T11:25:10;10.18;;;2.58;;
23155;SDS011;11746;50.876;4.246;2022-11-15T11:31:20;4.30;;;1.00;;
23155;SDS011;11746;50.876;4.246;2022-11-15T11:44:55;7.80;;;1.10;;
23155;SDS011;11746;50.876;4.246;2022-11-15T11:47:31;5.50;;;1.10;;
23155;SDS011;11746;50.876;4.246;2022-11-15T11:50:10;10.10;;;1.80;;
23155;SDS011;11746;50.876;4.246;2022-11-15T11:55:56;4.65;;;1.08;;
23155;SDS011;11746;50.876;4.246;2022-11-15T11:58:43;8.10;;;0.98;;
23155;SDS011;11746;50.876;4.246;2022-11-15T12:01:15;7.93;;;1.00;;
23155;SDS011;11746;50.876;4.246;2022-11-15T12:07:01;3.35;;;0.77;;
23155;SDS011;11746;50.876;4.246;2022-11-15T12:14:38;5.72;;;1.10;;
23155;SDS011;11746;50.876;4.246;2022-11-15T12:17:28;3.85;;;0.80;;
23155;SDS011;11746;50.876;4.246;2022-11-15T12:20:02;5.05;;;1.05;;
23155;SDS011;11746;50.876;4.246;2022-11-15T12:22:40;5.85;;;1.73;;
23155;SDS011;11746;50.876;4.246;2022-11-15T12:25:31;3.90;;;1.05;;
23155;SDS011;11746;50.876;4.246;2022-11-15T12:28:03;3.40;;;1.00;;
23155;SDS011;11746;50.876;4.246;2022-11-15T12:30:43;3.17;;;0.70;;
23155;SDS011;11746;50.876;4.246;2022-11-15T12:33:28;5.45;;;1.00;;
23155;SDS011;11746;50.876;4.246;2022-11-15T12:36:04;5.85;;;1.10;;
23155;SDS011;11746;50.876;4.246;2022-11-15T12:38:49;4.85;;;1.10;;
23155;SDS011;11746;50.876;4.246;2022-11-15T12:41:16;4.57;;;0.98;;
23155;SDS011;11746;50.876;4.246;2022-11-15T12:43:43;3.60;;;0.80;;
23155;SDS011;11746;50.876;4.246;2022-11-15T12:46:12;4.85;;;0.98;;
23155;SDS011;11746;50.876;4.246;2022-11-15T12:48:47;3.03;;;0.85;;
23155;SDS011;11746;50.876;4.246;2022-11-15T13:02:27;5.30;;;1.30;;
23155;SDS011;11746;50.876;4.246;2022-11-15T13:28:27;4.65;;;0.82;;
23155;SDS011;11746;50.876;4.246;2022-11-15T13:31:01;3.92;;;0.98;;
23155;SDS011;11746;50.876;4.246;2022-11-15T13:33:39;4.57;;;1.20;;
23155;SDS011;11746;50.876;4.246;2022-11-15T13:36:15;5.22;;;1.10;;
23155;SDS011;11746;50.876;4.246;2022-11-15T13:38:53;2.30;;;1.02;;
23155;SDS011;11746;50.876;4.246;2022-11-15T13:41:25;4.43;;;1.17;;
23155;SDS011;11746;50.876;4.246;2022-11-15T13:43:55;3.03;;;1.27;;
23155;SDS011;11746;50.876;4.246;2022-11-15T13:48:52;3.38;;;1.00;;
23155;SDS011;11746;50.876;4.246;2022-11-15T13:51:27;5.20;;;1.00;;
23155;SDS011;11746;50.876;4.246;2022-11-15T13:56:48;3.55;;;1.40;;
23155;SDS011;11746;50.876;4.246;2022-11-15T13:59:24;3.08;;;1.20;;
23155;SDS011;11746;50.876;4.246;2022-11-15T14:01:58;5.65;;;1.30;;
23155;SDS011;11746;50.876;4.246;2022-11-15T14:04:27;3.20;;;1.10;;
23155;SDS011;11746;50.876;4.246;2022-11-15T14:06:56;3.35;;;1.15;;
23155;SDS011;11746;50.876;4.246;2022-11-15T14:09:30;2.03;;;0.90;;
23155;SDS011;11746;50.876;4.246;2022-11-15T14:11:57;2.95;;;1.00;;
23155;SDS011;11746;50.876;4.246;2022-11-15T14:14:25;1.83;;;0.88;;
23155;SDS011;11746;50.876;4.246;2022-11-15T14:16:54;3.10;;;1.02;;
23155;SDS011;11746;50.876;4.246;2022-11-15T14:24:33;2.42;;;1.13;;
23155;SDS011;11746;50.876;4.246;2022-11-15T14:29:46;2.00;;;0.93;;
23155;SDS011;11746;50.876;4.246;2022-11-15T14:32:14;2.47;;;0.98;;
23155;SDS011;11746;50.876;4.246;2022-11-15T14:34:42;3.08;;;1.25;;
23155;SDS011;11746;50.876;4.246;2022-11-15T14:39:58;3.28;;;1.30;;
23155;SDS011;11746;50.876;4.246;2022-11-15T14:42:24;3.90;;;1.25;;
23155;SDS011;11746;50.876;4.246;2022-11-15T14:44:50;3.20;;;1.35;;
23155;SDS011;11746;50.876;4.246;2022-11-15T14:47:17;4.55;;;1.52;;
23155;SDS011;11746;50.876;4.246;2022-11-15T14:49:46;4.63;;;1.30;;
23155;SDS011;11746;50.876;4.246;2022-11-15T14:52:31;4.43;;;1.02;;
23155;SDS011;11746;50.876;4.246;2022-11-15T14:55:04;4.97;;;1.42;;
23155;SDS011;11746;50.876;4.246;2022-11-15T14:57:39;2.65;;;1.33;;
23155;SDS011;11746;50.876;4.246;2022-11-15T15:00:05;8.07;;;1.50;;
23155;SDS011;11746;50.876;4.246;2022-11-15T15:02:31;1.45;;;1.10;;
23155;SDS011;11746;50.876;4.246;2022-11-15T15:04:57;6.30;;;1.38;;
23155;SDS011;11746;50.876;4.246;2022-11-15T15:07:26;3.20;;;1.27;;
23155;SDS011;11746;50.876;4.246;2022-11-15T15:09:51;3.00;;;1.27;;
23155;SDS011;11746;50.876;4.246;2022-11-15T15:12:21;7.10;;;3.53;;
23155;SDS011;11746;50.876;4.246;2022-11-15T15:14:49;3.78;;;1.75;;
23155;SDS011;11746;50.876;4.246;2022-11-15T15:17:17;7.32;;;4.03;;
23155;SDS011;11746;50.876;4.246;2022-11-15T15:19:46;4.68;;;2.20;;
23155;SDS011;11746;50.876;4.246;2022-11-15T15:22:15;3.03;;;1.75;;
23155;SDS011;11746;50.876;4.246;2022-11-15T15:24:42;10.30;;;5.53;;
23155;SDS011;11746;50.876;4.246;2022-11-15T15:27:12;6.63;;;4.50;;
23155;SDS011;11746;50.876;4.246;2022-11-15T15:29:38;36.63;;;22.13;;
23155;SDS011;11746;50.876;4.246;2022-11-15T15:32:04;4.97;;;3.53;;
23155;SDS011;11746;50.876;4.246;2022-11-15T15:34:33;4.82;;;2.47;;
23155;SDS011;11746;50.876;4.246;2022-11-15T15:39:49;6.57;;;4.50;;
23155;SDS011;11746;50.876;4.246;2022-11-15T15:42:18;10.65;;;7.60;;
23155;SDS011;11746;50.876;4.246;2022-11-15T15:44:44;8.48;;;4.82;;
23155;SDS011;11746;50.876;4.246;2022-11-15T15:47:16;19.75;;;11.27;;
23155;SDS011;11746;50.876;4.246;2022-11-15T15:49:47;25.80;;;13.57;;
23155;SDS011;11746;50.876;4.246;2022-11-15T15:52:15;30.77;;;17.02;;
23155;SDS011;11746;50.876;4.246;2022-11-15T15:54:41;38.08;;;23.40;;
23155;SDS011;11746;50.876;4.246;2022-11-15T15:57:13;47.58;;;25.15;;
23155;SDS011;11746;50.876;4.246;2022-11-15T15:59:41;37.20;;;21.13;;
23155;SDS011;11746;50.876;4.246;2022-11-15T16:02:13;62.78;;;39.78;;
23155;SDS011;11746;50.876;4.246;2022-11-15T16:04:40;8.40;;;5.32;;
23155;SDS011;11746;50.876;4.246;2022-11-15T16:07:20;9.73;;;7.47;;
23155;SDS011;11746;50.876;4.246;2022-11-15T16:09:48;10.20;;;6.55;;
23155;SDS011;11746;50.876;4.246;2022-11-15T16:14:53;17.15;;;12.15;;
23155;SDS011;11746;50.876;4.246;2022-11-15T16:17:20;12.60;;;9.07;;
23155;SDS011;11746;50.876;4.246;2022-11-15T16:19:50;7.65;;;5.22;;
23155;SDS011;11746;50.876;4.246;2022-11-15T16:22:18;13.55;;;8.00;;
23155;SDS011;11746;50.876;4.246;2022-11-15T16:24:44;9.68;;;5.85;;
23155;SDS011;11746;50.876;4.246;2022-11-15T16:27:17;9.85;;;7.15;;
23155;SDS011;11746;50.876;4.246;2022-11-15T16:29:48;7.40;;;5.20;;
23155;SDS011;11746;50.876;4.246;2022-11-15T16:32:14;9.75;;;6.13;;
23155;SDS011;11746;50.876;4.246;2022-11-15T16:34:41;6.25;;;4.70;;
23155;SDS011;11746;50.876;4.246;2022-11-15T16:37:15;5.35;;;3.95;;
23155;SDS011;11746;50.876;4.246;2022-11-15T16:39:51;6.25;;;3.67;;
23155;SDS011;11746;50.876;4.246;2022-11-15T16:42:17;5.22;;;3.80;;
23155;SDS011;11746;50.876;4.246;2022-11-15T16:44:45;7.00;;;4.90;;
23155;SDS011;11746;50.876;4.246;2022-11-15T16:47:15;10.20;;;5.75;;
23155;SDS011;11746;50.876;4.246;2022-11-15T16:49:43;5.03;;;3.30;;
23155;SDS011;11746;50.876;4.246;2022-11-15T16:52:11;9.90;;;6.00;;
23155;SDS011;11746;50.876;4.246;2022-11-15T16:54:39;8.05;;;5.07;;
23155;SDS011;11746;50.876;4.246;2022-11-15T16:57:09;4.28;;;2.72;;
23155;SDS011;11746;50.876;4.246;2022-11-15T16:59:35;6.15;;;3.60;;
23155;SDS011;11746;50.876;4.246;2022-11-15T17:02:03;2.50;;;1.92;;
23155;SDS011;11746;50.876;4.246;2022-11-15T17:04:34;4.50;;;2.80;;
23155;SDS011;11746;50.876;4.246;2022-11-15T17:06:59;4.28;;;2.38;;
23155;SDS011;11746;50.876;4.246;2022-11-15T17:09:25;6.20;;;2.80;;
23155;SDS011;11746;50.876;4.246;2022-11-15T17:11:53;4.80;;;3.60;;
23155;SDS011;11746;50.876;4.246;2022-11-15T17:14:19;4.18;;;2.72;;
23155;SDS011;11746;50.876;4.246;2022-11-15T17:16:48;5.22;;;3.20;;
23155;SDS011;11746;50.876;4.246;2022-11-15T17:19:17;5.82;;;3.20;;
23155;SDS011;11746;50.876;4.246;2022-11-15T17:21:46;5.20;;;4.22;;
23155;SDS011;11746;50.876;4.246;2022-11-15T17:24:13;6.68;;;4.90;;
23155;SDS011;11746;50.876;4.246;2022-11-15T17:26:39;7.72;;;4.32;;
23155;SDS011;11746;50.876;4.246;2022-11-15T17:29:06;5.75;;;3.88;;
23155;SDS011;11746;50.876;4.246;2022-11-15T17:31:33;7.65;;;4.22;;